Terminal Aerodrome Forecast
Issued by NWS

Home | Current Version | Previous Version | Text Only | Print | Product List | Glossary On
Versions: 1 2 3 4 5 6 7 8 9 10 11 12 13
000
FTUS45 KPIH 102300
TAFSUN
TAF
KSUN 102320Z 1100/1124 15010KT P6SM VCTS SCT120CB
     FM110300 32011KT P6SM SCT150
     FM111700 14010KT P6SM VCTS FEW100 SCT150CB
      AMD LTD TO CLD VIS AND WIND 1105/1113=

USA.gov is the U.S. government's official web portal to all federal, state and local government web resources and services.